sensor_id;sensor_type;location;lat;lon;timestamp;noise_LAeq;noise_LA_min;noise_LA_max;noise_LA01;noise_LA95
50333;Laerm;36239;48.132;-1.210;2023-04-19T00:00:33;37.52;32.93;44.58;;
50333;Laerm;36239;48.132;-1.210;2023-04-19T00:03:04;37.85;33.90;41.89;;
50333;Laerm;36239;48.132;-1.210;2023-04-19T00:05:30;38.22;33.44;42.71;;
50333;Laerm;36239;48.132;-1.210;2023-04-19T00:07:56;37.90;32.93;43.14;;
50333;Laerm;36239;48.132;-1.210;2023-04-19T00:10:22;37.55;33.44;40.80;;
50333;Laerm;36239;48.132;-1.210;2023-04-19T00:12:48;37.95;33.90;48.74;;
50333;Laerm;36239;48.132;-1.210;2023-04-19T00:15:14;37.97;33.44;41.68;;
50333;Laerm;36239;48.132;-1.210;2023-04-19T00:17:40;37.97;33.90;41.22;;
50333;Laerm;36239;48.132;-1.210;2023-04-19T00:20:06;38.03;33.44;41.96;;
50333;Laerm;36239;48.132;-1.210;2023-04-19T00:22:33;37.91;32.93;43.14;;
50333;Laerm;36239;48.132;-1.210;2023-04-19T00:24:59;39.32;33.44;63.46;;
50333;Laerm;36239;48.132;-1.210;2023-04-19T00:27:25;38.22;33.90;43.29;;
50333;Laerm;36239;48.132;-1.210;2023-04-19T00:29:51;38.19;33.97;41.61;;
50333;Laerm;36239;48.132;-1.210;2023-04-19T00:32:17;38.40;33.44;42.59;;
50333;Laerm;36239;48.132;-1.210;2023-04-19T00:34:43;39.08;34.69;45.01;;
50333;Laerm;36239;48.132;-1.210;2023-04-19T00:37:09;38.77;34.69;43.94;;
50333;Laerm;36239;48.132;-1.210;2023-04-19T00:39:36;38.35;34.69;41.53;;
50333;Laerm;36239;48.132;-1.210;2023-04-19T00:42:02;38.32;33.44;41.96;;
50333;Laerm;36239;48.132;-1.210;2023-04-19T00:44:28;38.32;34.31;41.96;;
50333;Laerm;36239;48.132;-1.210;2023-04-19T00:46:55;38.42;34.31;42.58;;
50333;Laerm;36239;48.132;-1.210;2023-04-19T00:49:21;38.41;33.44;55.38;;
50333;Laerm;36239;48.132;-1.210;2023-04-19T00:51:47;39.13;32.93;60.69;;
50333;Laerm;36239;48.132;-1.210;2023-04-19T00:54:14;38.67;35.04;42.29;;
50333;Laerm;36239;48.132;-1.210;2023-04-19T00:56:40;38.91;35.04;43.54;;
50333;Laerm;36239;48.132;-1.210;2023-04-19T00:59:06;40.01;35.36;44.51;;
50333;Laerm;36239;48.132;-1.210;2023-04-19T01:01:32;38.97;34.69;43.42;;
50333;Laerm;36239;48.132;-1.210;2023-04-19T01:03:59;38.59;33.90;51.96;;
50333;Laerm;36239;48.132;-1.210;2023-04-19T01:06:25;39.61;35.36;43.86;;
50333;Laerm;36239;48.132;-1.210;2023-04-19T01:08:52;39.59;35.04;42.98;;
50333;Laerm;36239;48.132;-1.210;2023-04-19T01:11:18;39.86;35.36;42.71;;
50333;Laerm;36239;48.132;-1.210;2023-04-19T01:13:44;40.19;35.04;44.15;;
50333;Laerm;36239;48.132;-1.210;2023-04-19T01:16:11;39.97;35.66;43.19;;
50333;Laerm;36239;48.132;-1.210;2023-04-19T01:18:37;39.74;35.66;43.39;;
50333;Laerm;36239;48.132;-1.210;2023-04-19T01:21:06;39.71;35.94;43.19;;
50333;Laerm;36239;48.132;-1.210;2023-04-19T01:23:32;39.95;35.94;43.63;;
50333;Laerm;36239;48.132;-1.210;2023-04-19T01:25:58;39.79;35.01;43.90;;
50333;Laerm;36239;48.132;-1.210;2023-04-19T01:28:25;40.34;36.20;45.07;;
50333;Laerm;36239;48.132;-1.210;2023-04-19T01:30:51;39.68;35.36;42.93;;
50333;Laerm;36239;48.132;-1.210;2023-04-19T01:33:22;40.20;35.04;43.94;;
50333;Laerm;36239;48.132;-1.210;2023-04-19T01:35:48;39.84;35.94;42.74;;
50333;Laerm;36239;48.132;-1.210;2023-04-19T01:38:17;39.78;35.94;44.31;;
50333;Laerm;36239;48.132;-1.210;2023-04-19T01:40:43;39.98;35.66;45.01;;
50333;Laerm;36239;48.132;-1.210;2023-04-19T01:43:13;39.68;35.04;42.76;;
50333;Laerm;36239;48.132;-1.210;2023-04-19T01:45:39;39.76;33.44;54.06;;
50333;Laerm;36239;48.132;-1.210;2023-04-19T01:48:05;39.58;35.66;44.19;;
50333;Laerm;36239;48.132;-1.210;2023-04-19T01:50:31;39.68;35.04;45.11;;
50333;Laerm;36239;48.132;-1.210;2023-04-19T01:52:58;39.93;35.36;43.14;;
50333;Laerm;36239;48.132;-1.210;2023-04-19T01:55:24;39.19;35.04;47.67;;
50333;Laerm;36239;48.132;-1.210;2023-04-19T01:57:50;39.27;35.94;42.65;;
50333;Laerm;36239;48.132;-1.210;2023-04-19T02:00:19;39.81;35.94;43.44;;
50333;Laerm;36239;48.132;-1.210;2023-04-19T02:02:45;39.72;35.66;43.90;;
50333;Laerm;36239;48.132;-1.210;2023-04-19T02:05:11;40.11;35.36;44.83;;
50333;Laerm;36239;48.132;-1.210;2023-04-19T02:07:37;39.74;35.36;45.54;;
50333;Laerm;36239;48.132;-1.210;2023-04-19T02:10:04;38.94;34.69;42.29;;
50333;Laerm;36239;48.132;-1.210;2023-04-19T02:12:33;39.63;34.31;43.04;;
50333;Laerm;36239;48.132;-1.210;2023-04-19T02:14:59;39.61;35.66;44.47;;
50333;Laerm;36239;48.132;-1.210;2023-04-19T02:17:27;39.89;35.94;43.85;;
50333;Laerm;36239;48.132;-1.210;2023-04-19T02:19:53;39.53;35.94;42.88;;
50333;Laerm;36239;48.132;-1.210;2023-04-19T02:22:19;40.49;36.69;43.72;;
50333;Laerm;36239;48.132;-1.210;2023-04-19T02:24:45;41.02;37.88;43.49;;
50333;Laerm;36239;48.132;-1.210;2023-04-19T02:27:12;40.81;36.20;44.35;;
50333;Laerm;36239;48.132;-1.210;2023-04-19T02:29:38;40.84;37.52;43.63;;
50333;Laerm;36239;48.132;-1.210;2023-04-19T02:32:04;40.18;36.69;43.86;;
50333;Laerm;36239;48.132;-1.210;2023-04-19T02:34:31;40.50;35.94;44.23;;
50333;Laerm;36239;48.132;-1.210;2023-04-19T02:36:57;40.14;36.91;43.90;;
50333;Laerm;36239;48.132;-1.210;2023-04-19T02:39:23;40.16;36.69;43.14;;
50333;Laerm;36239;48.132;-1.210;2023-04-19T02:41:49;40.48;36.45;42.93;;
50333;Laerm;36239;48.132;-1.210;2023-04-19T02:44:15;39.85;35.94;43.34;;
50333;Laerm;36239;48.132;-1.210;2023-04-19T02:46:51;40.23;35.66;43.81;;
50333;Laerm;36239;48.132;-1.210;2023-04-19T02:49:17;39.90;36.45;42.74;;
50333;Laerm;36239;48.132;-1.210;2023-04-19T02:51:44;39.74;35.36;42.59;;
50333;Laerm;36239;48.132;-1.210;2023-04-19T02:54:10;39.77;36.10;43.09;;
50333;Laerm;36239;48.132;-1.210;2023-04-19T02:56:36;40.07;35.94;45.30;;
50333;Laerm;36239;48.132;-1.210;2023-04-19T02:59:02;40.47;36.20;43.72;;
50333;Laerm;36239;48.132;-1.210;2023-04-19T03:01:29;40.53;36.69;47.22;;
50333;Laerm;36239;48.132;-1.210;2023-04-19T03:03:56;41.83;36.20;51.48;;
50333;Laerm;36239;48.132;-1.210;2023-04-19T03:06:22;41.68;38.52;46.02;;
50333;Laerm;36239;48.132;-1.210;2023-04-19T03:08:48;41.30;38.05;46.78;;
50333;Laerm;36239;48.132;-1.210;2023-04-19T03:11:15;41.22;37.32;54.18;;
50333;Laerm;36239;48.132;-1.210;2023-04-19T03:13:41;41.21;38.37;43.86;;
50333;Laerm;36239;48.132;-1.210;2023-04-19T03:16:07;41.82;37.12;46.40;;
50333;Laerm;36239;48.132;-1.210;2023-04-19T03:18:33;41.13;37.88;43.60;;
50333;Laerm;36239;48.132;-1.210;2023-04-19T03:20:59;41.40;37.32;44.94;;
50333;Laerm;36239;48.132;-1.210;2023-04-19T03:23:26;41.31;37.32;43.49;;
50333;Laerm;36239;48.132;-1.210;2023-04-19T03:25:52;40.90;37.52;45.27;;
50333;Laerm;36239;48.132;-1.210;2023-04-19T03:28:18;41.24;36.45;44.19;;
50333;Laerm;36239;48.132;-1.210;2023-04-19T03:30:44;40.95;37.70;44.19;;
50333;Laerm;36239;48.132;-1.210;2023-04-19T03:33:10;41.34;37.88;44.23;;
50333;Laerm;36239;48.132;-1.210;2023-04-19T03:35:37;41.54;37.52;44.31;;
50333;Laerm;36239;48.132;-1.210;2023-04-19T03:38:03;41.20;37.52;44.39;;
50333;Laerm;36239;48.132;-1.210;2023-04-19T03:40:29;41.18;38.05;43.51;;
50333;Laerm;36239;48.132;-1.210;2023-04-19T03:42:57;41.75;38.37;44.94;;
50333;Laerm;36239;48.132;-1.210;2023-04-19T03:45:23;43.25;37.70;50.68;;
50333;Laerm;36239;48.132;-1.210;2023-04-19T03:47:49;40.87;37.32;43.19;;
50333;Laerm;36239;48.132;-1.210;2023-04-19T03:50:15;40.78;36.45;43.58;;
50333;Laerm;36239;48.132;-1.210;2023-04-19T03:52:41;40.93;37.32;43.77;;
50333;Laerm;36239;48.132;-1.210;2023-04-19T03:55:07;40.74;36.69;43.14;;
50333;Laerm;36239;48.132;-1.210;2023-04-19T03:57:34;41.14;37.12;44.15;;
50333;Laerm;36239;48.132;-1.210;2023-04-19T04:00:00;49.67;37.70;69.26;;
50333;Laerm;36239;48.132;-1.210;2023-04-19T04:02:26;41.97;36.91;47.88;;
50333;Laerm;36239;48.132;-1.210;2023-04-19T04:04:52;41.32;37.70;48.05;;
50333;Laerm;36239;48.132;-1.210;2023-04-19T04:07:19;41.06;37.12;48.60;;
50333;Laerm;36239;48.132;-1.210;2023-04-19T04:09:46;40.75;36.20;48.10;;
50333;Laerm;36239;48.132;-1.210;2023-04-19T04:12:13;41.30;35.94;50.30;;
50333;Laerm;36239;48.132;-1.210;2023-04-19T04:14:39;41.35;37.52;55.61;;
50333;Laerm;36239;48.132;-1.210;2023-04-19T04:17:05;42.11;37.88;51.92;;
50333;Laerm;36239;48.132;-1.210;2023-04-19T04:19:31;42.87;37.88;52.75;;
50333;Laerm;36239;48.132;-1.210;2023-04-19T04:21:57;43.45;38.05;53.29;;
50333;Laerm;36239;48.132;-1.210;2023-04-19T04:24:23;43.41;37.88;57.80;;
50333;Laerm;36239;48.132;-1.210;2023-04-19T04:26:49;50.77;39.34;64.33;;
50333;Laerm;36239;48.132;-1.210;2023-04-19T04:29:16;51.68;39.34;67.04;;
50333;Laerm;36239;48.132;-1.210;2023-04-19T04:31:42;49.11;39.21;63.80;;
50333;Laerm;36239;48.132;-1.210;2023-04-19T04:34:08;53.04;38.67;67.61;;
50333;Laerm;36239;48.132;-1.210;2023-04-19T04:36:34;48.13;38.81;67.88;;
50333;Laerm;36239;48.132;-1.210;2023-04-19T04:39:02;43.56;38.37;54.97;;
50333;Laerm;36239;48.132;-1.210;2023-04-19T04:41:29;44.21;39.08;60.12;;
50333;Laerm;36239;48.132;-1.210;2023-04-19T04:43:59;43.78;39.08;55.83;;
50333;Laerm;36239;48.132;-1.210;2023-04-19T04:46:26;45.77;38.52;60.06;;
50333;Laerm;36239;48.132;-1.210;2023-04-19T04:48:52;44.62;39.46;56.46;;
50333;Laerm;36239;48.132;-1.210;2023-04-19T04:51:18;44.66;39.70;54.25;;
50333;Laerm;36239;48.132;-1.210;2023-04-19T04:53:44;46.40;39.70;59.66;;
50333;Laerm;36239;48.132;-1.210;2023-04-19T04:56:12;43.82;39.58;57.10;;
50333;Laerm;36239;48.132;-1.210;2023-04-19T04:58:38;43.78;40.03;53.02;;
50333;Laerm;36239;48.132;-1.210;2023-04-19T05:01:04;56.08;39.70;71.06;;
50333;Laerm;36239;48.132;-1.210;2023-04-19T05:03:30;45.39;39.58;57.24;;
50333;Laerm;36239;48.132;-1.210;2023-04-19T05:05:55;44.28;39.70;51.65;;
50333;Laerm;36239;48.132;-1.210;2023-04-19T05:08:22;45.29;40.27;53.28;;
50333;Laerm;36239;48.132;-1.210;2023-04-19T05:10:48;45.82;40.71;72.80;;
50333;Laerm;36239;48.132;-1.210;2023-04-19T05:13:14;44.27;40.89;55.90;;
50333;Laerm;36239;48.132;-1.210;2023-04-19T05:15:40;44.42;40.62;52.82;;
50333;Laerm;36239;48.132;-1.210;2023-04-19T05:18:06;45.51;40.62;56.79;;
50333;Laerm;36239;48.132;-1.210;2023-04-19T05:20:32;44.62;40.53;68.65;;
50333;Laerm;36239;48.132;-1.210;2023-04-19T05:22:59;46.01;40.53;59.13;;
50333;Laerm;36239;48.132;-1.210;2023-04-19T05:25:26;45.28;39.81;61.38;;
50333;Laerm;36239;48.132;-1.210;2023-04-19T05:27:52;46.50;41.46;63.01;;
50333;Laerm;36239;48.132;-1.210;2023-04-19T05:30:18;46.64;41.61;59.36;;
50333;Laerm;36239;48.132;-1.210;2023-04-19T05:32:46;44.43;41.14;54.64;;
50333;Laerm;36239;48.132;-1.210;2023-04-19T05:35:12;44.50;41.06;53.60;;
50333;Laerm;36239;48.132;-1.210;2023-04-19T05:37:38;44.25;41.11;53.33;;
50333;Laerm;36239;48.132;-1.210;2023-04-19T05:40:06;51.56;41.38;77.85;;
50333;Laerm;36239;48.132;-1.210;2023-04-19T05:42:34;51.61;41.61;82.91;;
50333;Laerm;36239;48.132;-1.210;2023-04-19T05:45:01;45.59;41.89;64.15;;
50333;Laerm;36239;48.132;-1.210;2023-04-19T05:47:27;49.57;41.75;76.87;;
50333;Laerm;36239;48.132;-1.210;2023-04-19T05:49:53;48.56;41.14;77.75;;
50333;Laerm;36239;48.132;-1.210;2023-04-19T05:52:19;44.84;41.33;54.28;;
50333;Laerm;36239;48.132;-1.210;2023-04-19T05:54:44;44.89;41.68;60.75;;
50333;Laerm;36239;48.132;-1.210;2023-04-19T05:57:10;44.34;41.61;51.77;;
50333;Laerm;36239;48.132;-1.210;2023-04-19T05:59:37;43.82;40.53;55.83;;
50333;Laerm;36239;48.132;-1.210;2023-04-19T06:02:03;43.50;40.23;54.38;;
50333;Laerm;36239;48.132;-1.210;2023-04-19T06:04:29;45.90;40.98;72.84;;
50333;Laerm;36239;48.132;-1.210;2023-04-19T06:06:55;48.23;40.43;77.61;;
50333;Laerm;36239;48.132;-1.210;2023-04-19T06:09:21;57.69;41.75;81.92;;
50333;Laerm;36239;48.132;-1.210;2023-04-19T06:11:47;44.50;40.13;62.08;;
50333;Laerm;36239;48.132;-1.210;2023-04-19T06:14:13;44.26;40.80;59.48;;
50333;Laerm;36239;48.132;-1.210;2023-04-19T06:16:39;45.29;41.53;67.14;;
50333;Laerm;36239;48.132;-1.210;2023-04-19T06:19:05;55.56;41.06;80.15;;
50333;Laerm;36239;48.132;-1.210;2023-04-19T06:21:33;45.48;41.22;61.21;;
50333;Laerm;36239;48.132;-1.210;2023-04-19T06:23:59;47.75;40.80;65.53;;
50333;Laerm;36239;48.132;-1.210;2023-04-19T06:26:25;46.54;42.59;62.56;;
50333;Laerm;36239;48.132;-1.210;2023-04-19T06:28:51;46.87;42.41;63.30;;
50333;Laerm;36239;48.132;-1.210;2023-04-19T06:31:17;45.65;41.06;68.64;;
50333;Laerm;36239;48.132;-1.210;2023-04-19T06:33:43;45.09;41.30;56.90;;
50333;Laerm;36239;48.132;-1.210;2023-04-19T06:36:09;45.05;41.38;54.41;;
50333;Laerm;36239;48.132;-1.210;2023-04-19T06:38:35;45.17;41.61;59.85;;
50333;Laerm;36239;48.132;-1.210;2023-04-19T06:41:03;45.74;41.82;58.36;;
50333;Laerm;36239;48.132;-1.210;2023-04-19T06:43:29;45.46;41.61;62.06;;
50333;Laerm;36239;48.132;-1.210;2023-04-19T06:45:59;46.44;41.46;66.78;;
50333;Laerm;36239;48.132;-1.210;2023-04-19T06:48:25;46.05;41.68;62.54;;
50333;Laerm;36239;48.132;-1.210;2023-04-19T06:50:51;46.72;42.65;61.81;;
50333;Laerm;36239;48.132;-1.210;2023-04-19T06:53:17;45.80;42.59;56.73;;
50333;Laerm;36239;48.132;-1.210;2023-04-19T06:55:43;45.97;43.24;56.63;;
50333;Laerm;36239;48.132;-1.210;2023-04-19T06:58:09;46.77;43.24;68.54;;
50333;Laerm;36239;48.132;-1.210;2023-04-19T07:00:35;45.28;42.29;53.57;;
50333;Laerm;36239;48.132;-1.210;2023-04-19T07:03:01;45.93;42.16;55.22;;
50333;Laerm;36239;48.132;-1.210;2023-04-19T07:05:28;44.80;41.82;57.10;;
50333;Laerm;36239;48.132;-1.210;2023-04-19T07:07:55;45.48;42.09;63.06;;
50333;Laerm;36239;48.132;-1.210;2023-04-19T07:10:21;45.41;39.21;63.78;;
50333;Laerm;36239;48.132;-1.210;2023-04-19T07:12:47;45.53;39.58;63.74;;
50333;Laerm;36239;48.132;-1.210;2023-04-19T07:15:13;48.69;41.38;72.61;;
50333;Laerm;36239;48.132;-1.210;2023-04-19T07:17:39;52.59;40.89;75.40;;
50333;Laerm;36239;48.132;-1.210;2023-04-19T07:20:05;50.21;41.61;74.06;;
50333;Laerm;36239;48.132;-1.210;2023-04-19T07:22:31;44.71;42.93;58.96;;
50333;Laerm;36239;48.132;-1.210;2023-04-19T07:24:57;42.64;38.21;59.15;;
50333;Laerm;36239;48.132;-1.210;2023-04-19T07:27:24;43.05;37.70;60.22;;
50333;Laerm;36239;48.132;-1.210;2023-04-19T07:29:50;46.42;39.92;64.92;;
50333;Laerm;36239;48.132;-1.210;2023-04-19T07:32:16;45.64;42.65;53.78;;
50333;Laerm;36239;48.132;-1.210;2023-04-19T07:34:43;49.91;39.08;72.17;;
50333;Laerm;36239;48.132;-1.210;2023-04-19T07:37:10;47.05;39.21;62.87;;
50333;Laerm;36239;48.132;-1.210;2023-04-19T07:39:37;44.43;39.21;54.85;;
50333;Laerm;36239;48.132;-1.210;2023-04-19T07:42:03;44.33;40.13;57.03;;
50333;Laerm;36239;48.132;-1.210;2023-04-19T07:44:30;45.57;39.81;61.85;;
50333;Laerm;36239;48.132;-1.210;2023-04-19T07:46:56;51.93;42.93;74.07;;
50333;Laerm;36239;48.132;-1.210;2023-04-19T07:49:22;45.38;39.21;68.20;;
50333;Laerm;36239;48.132;-1.210;2023-04-19T07:51:48;42.90;38.21;54.99;;
50333;Laerm;36239;48.132;-1.210;2023-04-19T07:54:14;51.12;43.33;60.46;;
50333;Laerm;36239;48.132;-1.210;2023-04-19T07:56:45;47.46;39.92;65.10;;
50333;Laerm;36239;48.132;-1.210;2023-04-19T07:59:11;48.30;41.46;62.04;;
50333;Laerm;36239;48.132;-1.210;2023-04-19T08:01:37;54.25;42.22;74.39;;
50333;Laerm;36239;48.132;-1.210;2023-04-19T08:04:03;48.79;43.39;58.80;;
50333;Laerm;36239;48.132;-1.210;2023-04-19T08:06:29;46.45;43.51;60.40;;
50333;Laerm;36239;48.132;-1.210;2023-04-19T08:08:55;47.33;42.41;72.83;;
50333;Laerm;36239;48.132;-1.210;2023-04-19T08:11:21;46.12;42.09;63.17;;
50333;Laerm;36239;48.132;-1.210;2023-04-19T08:13:49;46.54;42.65;73.52;;
50333;Laerm;36239;48.132;-1.210;2023-04-19T08:16:15;57.39;42.65;70.73;;
50333;Laerm;36239;48.132;-1.210;2023-04-19T08:18:41;54.01;42.59;67.03;;
50333;Laerm;36239;48.132;-1.210;2023-04-19T08:21:08;52.32;41.89;60.94;;
50333;Laerm;36239;48.132;-1.210;2023-04-19T08:23:34;49.03;41.82;58.52;;
50333;Laerm;36239;48.132;-1.210;2023-04-19T08:26:01;50.20;40.98;66.15;;
50333;Laerm;36239;48.132;-1.210;2023-04-19T08:28:27;60.44;43.68;72.27;;
50333;Laerm;36239;48.132;-1.210;2023-04-19T08:30:53;50.59;38.99;69.66;;
50333;Laerm;36239;48.132;-1.210;2023-04-19T08:33:19;47.47;38.37;66.99;;
50333;Laerm;36239;48.132;-1.210;2023-04-19T08:35:45;57.67;41.22;69.93;;
50333;Laerm;36239;48.132;-1.210;2023-04-19T08:38:11;52.90;37.70;64.95;;
50333;Laerm;36239;48.132;-1.210;2023-04-19T08:40:41;46.35;38.21;72.88;;
50333;Laerm;36239;48.132;-1.210;2023-04-19T08:43:10;60.51;39.46;72.49;;
50333;Laerm;36239;48.132;-1.210;2023-04-19T08:45:36;55.52;38.95;70.78;;
50333;Laerm;36239;48.132;-1.210;2023-04-19T08:48:03;59.42;39.46;75.79;;
50333;Laerm;36239;48.132;-1.210;2023-04-19T08:50:29;62.04;38.37;80.12;;
50333;Laerm;36239;48.132;-1.210;2023-04-19T08:52:57;57.34;38.52;83.36;;
50333;Laerm;36239;48.132;-1.210;2023-04-19T08:55:23;54.33;38.52;73.72;;
50333;Laerm;36239;48.132;-1.210;2023-04-19T08:57:49;58.18;40.62;72.61;;
50333;Laerm;36239;48.132;-1.210;2023-04-19T09:00:15;50.04;38.81;74.66;;
50333;Laerm;36239;48.132;-1.210;2023-04-19T09:02:45;46.22;41.82;57.53;;
50333;Laerm;36239;48.132;-1.210;2023-04-19T09:05:12;59.46;41.14;83.55;;
50333;Laerm;36239;48.132;-1.210;2023-04-19T09:07:39;56.22;40.62;72.22;;
50333;Laerm;36239;48.132;-1.210;2023-04-19T09:10:09;52.49;38.21;70.65;;
50333;Laerm;36239;48.132;-1.210;2023-04-19T09:12:35;49.51;37.32;73.08;;
50333;Laerm;36239;48.132;-1.210;2023-04-19T09:15:02;47.89;36.91;75.73;;
50333;Laerm;36239;48.132;-1.210;2023-04-19T09:17:29;44.57;35.66;68.36;;
50333;Laerm;36239;48.132;-1.210;2023-04-19T09:19:56;43.95;38.37;60.76;;
50333;Laerm;36239;48.132;-1.210;2023-04-19T09:22:22;56.24;37.70;74.74;;
50333;Laerm;36239;48.132;-1.210;2023-04-19T09:24:49;53.29;38.37;80.64;;
50333;Laerm;36239;48.132;-1.210;2023-04-19T09:27:28;50.42;38.81;79.98;;
50333;Laerm;36239;48.132;-1.210;2023-04-19T09:29:55;47.06;38.37;67.54;;
50333;Laerm;36239;48.132;-1.210;2023-04-19T09:32:21;55.85;38.21;79.90;;
50333;Laerm;36239;48.132;-1.210;2023-04-19T09:34:52;43.80;36.91;66.67;;
50333;Laerm;36239;48.132;-1.210;2023-04-19T09:37:18;46.61;37.52;67.95;;
50333;Laerm;36239;48.132;-1.210;2023-04-19T09:39:44;55.23;38.05;84.06;;
50333;Laerm;36239;48.132;-1.210;2023-04-19T09:42:10;44.55;37.12;68.27;;
50333;Laerm;36239;48.132;-1.210;2023-04-19T09:44:36;47.33;37.70;71.35;;
50333;Laerm;36239;48.132;-1.210;2023-04-19T09:47:02;52.05;37.32;76.05;;
50333;Laerm;36239;48.132;-1.210;2023-04-19T09:49:45;55.38;37.88;75.15;;
50333;Laerm;36239;48.132;-1.210;2023-04-19T09:52:12;55.98;36.69;85.38;;
50333;Laerm;36239;48.132;-1.210;2023-04-19T09:54:38;46.25;37.88;68.27;;
50333;Laerm;36239;48.132;-1.210;2023-04-19T09:57:06;44.96;36.69;66.94;;
50333;Laerm;36239;48.132;-1.210;2023-04-19T09:59:32;41.42;36.69;60.68;;
50333;Laerm;36239;48.132;-1.210;2023-04-19T10:01:58;52.86;35.36;70.86;;
50333;Laerm;36239;48.132;-1.210;2023-04-19T10:04:25;57.46;36.91;83.19;;
50333;Laerm;36239;48.132;-1.210;2023-04-19T10:06:53;51.76;37.52;74.41;;
50333;Laerm;36239;48.132;-1.210;2023-04-19T10:09:22;44.49;36.69;67.74;;
50333;Laerm;36239;48.132;-1.210;2023-04-19T10:11:52;54.38;38.21;78.85;;
50333;Laerm;36239;48.132;-1.210;2023-04-19T10:14:22;49.72;36.45;75.50;;
50333;Laerm;36239;48.132;-1.210;2023-04-19T10:16:54;44.33;36.91;64.42;;
50333;Laerm;36239;48.132;-1.210;2023-04-19T10:19:21;42.53;36.91;59.40;;
50333;Laerm;36239;48.132;-1.210;2023-04-19T10:21:48;48.84;37.88;70.62;;
50333;Laerm;36239;48.132;-1.210;2023-04-19T10:24:15;45.22;36.10;67.32;;
50333;Laerm;36239;48.132;-1.210;2023-04-19T10:32:12;59.91;38.05;85.31;;
50333;Laerm;36239;48.132;-1.210;2023-04-19T10:34:39;58.28;38.21;83.78;;
50333;Laerm;36239;48.132;-1.210;2023-04-19T10:37:08;56.80;37.88;82.59;;
50333;Laerm;36239;48.132;-1.210;2023-04-19T10:39:38;64.93;38.21;90.26;;
50333;Laerm;36239;48.132;-1.210;2023-04-19T10:42:05;47.31;37.70;72.54;;
50333;Laerm;36239;48.132;-1.210;2023-04-19T10:44:31;49.21;38.21;72.52;;
50333;Laerm;36239;48.132;-1.210;2023-04-19T10:46:58;51.27;35.36;77.71;;
50333;Laerm;36239;48.132;-1.210;2023-04-19T10:49:27;65.84;38.21;89.41;;
50333;Laerm;36239;48.132;-1.210;2023-04-19T10:51:53;63.37;37.70;88.36;;
50333;Laerm;36239;48.132;-1.210;2023-04-19T10:56:57;41.21;35.59;59.67;;
50333;Laerm;36239;48.132;-1.210;2023-04-19T10:59:30;61.36;37.12;87.12;;
50333;Laerm;36239;48.132;-1.210;2023-04-19T11:01:57;51.46;37.52;72.30;;
50333;Laerm;36239;48.132;-1.210;2023-04-19T11:07:02;51.35;38.81;80.25;;
50333;Laerm;36239;48.132;-1.210;2023-04-19T11:12:02;54.52;37.88;77.26;;
50333;Laerm;36239;48.132;-1.210;2023-04-19T11:14:29;67.78;36.69;84.80;;
50333;Laerm;36239;48.132;-1.210;2023-04-19T11:17:15;55.51;38.60;83.27;;
50333;Laerm;36239;48.132;-1.210;2023-04-19T11:19:42;53.50;37.52;80.92;;
50333;Laerm;36239;48.132;-1.210;2023-04-19T11:22:08;57.25;38.37;83.34;;
50333;Laerm;36239;48.132;-1.210;2023-04-19T11:24:34;61.75;39.58;88.54;;
50333;Laerm;36239;48.132;-1.210;2023-04-19T11:27:00;57.48;40.33;83.55;;
50333;Laerm;36239;48.132;-1.210;2023-04-19T11:29:32;54.65;38.52;83.87;;
50333;Laerm;36239;48.132;-1.210;2023-04-19T11:31:59;52.63;39.35;79.68;;
50333;Laerm;36239;48.132;-1.210;2023-04-19T11:34:25;56.63;38.37;81.60;;
50333;Laerm;36239;48.132;-1.210;2023-04-19T11:36:51;56.81;39.58;77.46;;
50333;Laerm;36239;48.132;-1.210;2023-04-19T11:39:17;51.55;37.52;75.87;;
50333;Laerm;36239;48.132;-1.210;2023-04-19T11:41:43;64.18;36.20;91.64;;
50333;Laerm;36239;48.132;-1.210;2023-04-19T11:44:12;53.31;37.12;78.50;;
50333;Laerm;36239;48.132;-1.210;2023-04-19T11:46:38;66.17;38.05;95.69;;
50333;Laerm;36239;48.132;-1.210;2023-04-19T11:49:04;61.56;40.23;83.57;;
50333;Laerm;36239;48.132;-1.210;2023-04-19T11:51:30;54.95;38.52;78.37;;
50333;Laerm;36239;48.132;-1.210;2023-04-19T11:53:56;59.96;38.52;83.93;;
50333;Laerm;36239;48.132;-1.210;2023-04-19T11:56:22;56.43;39.21;80.81;;
50333;Laerm;36239;48.132;-1.210;2023-04-19T11:58:48;52.93;39.34;74.74;;
50333;Laerm;36239;48.132;-1.210;2023-04-19T12:01:16;57.35;40.03;85.91;;
50333;Laerm;36239;48.132;-1.210;2023-04-19T12:03:45;50.32;39.70;73.33;;
50333;Laerm;36239;48.132;-1.210;2023-04-19T12:06:15;57.04;39.34;85.18;;
50333;Laerm;36239;48.132;-1.210;2023-04-19T12:08:45;61.22;39.34;88.02;;
50333;Laerm;36239;48.132;-1.210;2023-04-19T12:11:15;58.64;40.53;85.68;;
50333;Laerm;36239;48.132;-1.210;2023-04-19T12:13:43;63.43;39.70;91.25;;
50333;Laerm;36239;48.132;-1.210;2023-04-19T12:16:10;57.46;41.11;86.15;;
50333;Laerm;36239;48.132;-1.210;2023-04-19T12:18:43;50.69;40.43;76.39;;
50333;Laerm;36239;48.132;-1.210;2023-04-19T12:21:10;54.43;40.13;80.18;;
50333;Laerm;36239;48.132;-1.210;2023-04-19T12:23:37;58.82;39.58;84.41;;
50333;Laerm;36239;48.132;-1.210;2023-04-19T12:26:03;53.34;40.13;74.84;;
50333;Laerm;36239;48.132;-1.210;2023-04-19T12:28:33;66.42;38.74;95.51;;
50333;Laerm;36239;48.132;-1.210;2023-04-19T12:30:59;55.69;40.33;80.91;;
50333;Laerm;36239;48.132;-1.210;2023-04-19T12:33:24;62.77;41.61;88.20;;
50333;Laerm;36239;48.132;-1.210;2023-04-19T12:35:51;56.47;40.71;83.88;;
50333;Laerm;36239;48.132;-1.210;2023-04-19T12:38:17;51.97;40.89;75.58;;
50333;Laerm;36239;48.132;-1.210;2023-04-19T12:40:43;59.68;40.89;86.09;;
50333;Laerm;36239;48.132;-1.210;2023-04-19T12:43:09;53.40;39.92;77.40;;
50333;Laerm;36239;48.132;-1.210;2023-04-19T12:45:35;56.97;40.33;79.94;;
50333;Laerm;36239;48.132;-1.210;2023-04-19T12:48:01;67.01;39.81;94.19;;
50333;Laerm;36239;48.132;-1.210;2023-04-19T12:50:26;52.93;40.23;76.41;;
50333;Laerm;36239;48.132;-1.210;2023-04-19T12:52:52;53.18;39.70;82.84;;
50333;Laerm;36239;48.132;-1.210;2023-04-19T12:55:18;57.52;41.22;82.86;;
50333;Laerm;36239;48.132;-1.210;2023-04-19T12:57:45;58.60;39.81;83.66;;
50333;Laerm;36239;48.132;-1.210;2023-04-19T13:00:11;54.42;38.81;76.85;;
50333;Laerm;36239;48.132;-1.210;2023-04-19T13:02:37;57.45;37.88;87.33;;
50333;Laerm;36239;48.132;-1.210;2023-04-19T13:05:03;51.53;37.32;76.45;;
50333;Laerm;36239;48.132;-1.210;2023-04-19T13:07:30;52.86;42.16;76.64;;
50333;Laerm;36239;48.132;-1.210;2023-04-19T13:09:56;52.57;43.81;74.87;;
50333;Laerm;36239;48.132;-1.210;2023-04-19T13:12:22;64.78;44.51;89.75;;
50333;Laerm;36239;48.132;-1.210;2023-04-19T13:14:48;59.99;39.21;77.60;;
50333;Laerm;36239;48.132;-1.210;2023-04-19T13:17:17;56.63;38.95;84.55;;
50333;Laerm;36239;48.132;-1.210;2023-04-19T13:19:43;59.24;39.46;88.76;;
50333;Laerm;36239;48.132;-1.210;2023-04-19T13:22:09;50.59;38.37;75.72;;
50333;Laerm;36239;48.132;-1.210;2023-04-19T13:24:35;50.14;38.52;71.38;;
50333;Laerm;36239;48.132;-1.210;2023-04-19T13:27:01;43.81;38.37;63.72;;
50333;Laerm;36239;48.132;-1.210;2023-04-19T13:29:27;45.96;39.23;61.67;;
50333;Laerm;36239;48.132;-1.210;2023-04-19T13:31:53;49.52;38.37;65.42;;
50333;Laerm;36239;48.132;-1.210;2023-04-19T13:34:20;52.40;37.70;74.89;;
50333;Laerm;36239;48.132;-1.210;2023-04-19T13:36:46;56.15;38.05;80.59;;
50333;Laerm;36239;48.132;-1.210;2023-04-19T13:39:12;53.96;38.67;77.77;;
50333;Laerm;36239;48.132;-1.210;2023-04-19T13:41:38;45.88;38.52;71.14;;